Time;durP1;ratioP1;P1;durP2;ratioP2;P2;SDS_P1;SDS_P2;PMS_P1;PMS_P2;Temp;Humidity;BMP_temperature;BMP_pressure;BME280_temperature;BME280_humidity;BME280_pressure;Samples;Min_cycle;Max_cycle;Signal;HPM_P1;HPM_P2
2022/04/15 00:01:25;;;;;;;14.95;11.77;;;9.30;99.90;;;;;;5033202;28;20152;-61
2022/04/15 00:03:51;;;;;;;12.57;10.20;;;9.30;99.90;;;;;;5032052;28;20108;-61
2022/04/15 00:06:20;;;;;;;16.33;11.07;;;9.20;99.90;;;;;;5040248;28;20032;-61
2022/04/15 00:08:47;;;;;;;12.23;11.02;;;9.20;99.90;;;;;;5050464;28;20017;-61
2022/04/15 00:11:13;;;;;;;16.27;11.82;;;9.20;99.90;;;;;;5035894;28;20396;-61
2022/04/15 00:13:41;;;;;;;13.93;10.80;;;9.10;99.90;;;;;;5038654;28;20032;-61
2022/04/15 00:16:07;;;;;;;12.57;10.38;;;9.10;99.90;;;;;;5045016;28;20404;-60
2022/04/15 00:18:34;;;;;;;16.20;10.60;;;9.10;99.90;;;;;;5033001;28;20416;-61
2022/04/15 00:21:00;;;;;;;12.02;10.32;;;9.10;99.90;;;;;;5031755;28;20033;-61
2022/04/15 00:23:26;;;;;;;12.05;10.85;;;9.00;99.90;;;;;;5046502;28;20021;-61
2022/04/15 00:25:53;;;;;;;20.40;12.63;;;8.90;99.90;;;;;;5054625;28;20021;-61
2022/04/15 00:28:19;;;;;;;13.70;11.93;;;8.90;99.90;;;;;;5041906;28;20022;-60
2022/04/15 00:30:46;;;;;;;14.15;10.40;;;8.90;99.90;;;;;;5031807;28;20026;-61
2022/04/15 00:33:12;;;;;;;15.23;11.32;;;8.80;99.90;;;;;;5031526;28;20021;-61
2022/04/15 00:35:37;;;;;;;13.45;11.05;;;8.80;99.90;;;;;;5033656;28;20543;-61
2022/04/15 00:38:03;;;;;;;11.55;10.32;;;8.80;99.90;;;;;;5051835;28;20037;-61
2022/04/15 00:40:29;;;;;;;20.10;12.40;;;8.80;99.90;;;;;;5041053;28;20088;-61
2022/04/15 00:42:55;;;;;;;15.07;10.38;;;8.90;99.90;;;;;;5031237;28;20462;-60
2022/04/15 00:45:21;;;;;;;21.35;13.25;;;8.90;99.90;;;;;;5032435;28;20025;-61
2022/04/15 00:47:51;;;;;;;13.95;10.45;;;8.90;99.90;;;;;;5030850;28;20117;-61
2022/04/15 00:50:24;;;;;;;15.00;10.80;;;8.90;99.90;;;;;;5031216;28;20076;-61
2022/04/15 00:52:51;;;;;;;14.00;11.60;;;8.90;99.90;;;;;;5031367;28;20467;-61
2022/04/15 00:55:19;;;;;;;12.98;11.30;;;8.90;99.90;;;;;;5030977;28;20021;-61
2022/04/15 00:57:52;;;;;;;13.80;10.88;;;8.90;99.90;;;;;;5049969;28;20044;-61
2022/04/15 01:00:20;;;;;;;22.27;11.80;;;8.80;99.90;;;;;;5050651;28;20052;-61
2022/04/15 01:02:46;;;;;;;15.88;11.00;;;8.90;99.90;;;;;;5049334;28;20071;-61
2022/04/15 01:05:13;;;;;;;12.80;11.48;;;8.90;99.90;;;;;;5049283;28;20045;-61
2022/04/15 01:07:43;;;;;;;12.38;9.40;;;8.90;99.90;;;;;;5032288;28;20048;-61
2022/04/15 01:10:13;;;;;;;13.02;10.50;;;9.10;99.90;;;;;;5031998;28;20028;-61
2022/04/15 01:12:46;;;;;;;12.32;10.63;;;9.20;99.90;;;;;;5031788;28;20018;-61
2022/04/15 01:15:13;;;;;;;12.90;10.23;;;9.00;99.90;;;;;;5047099;28;20104;-61
2022/04/15 01:17:40;;;;;;;10.98;9.90;;;9.10;99.90;;;;;;5031327;28;20787;-61
2022/04/15 01:20:09;;;;;;;11.77;10.32;;;9.10;99.90;;;;;;5030512;28;20026;-61
2022/04/15 01:22:44;;;;;;;13.38;10.02;;;9.10;99.90;;;;;;5030756;28;20025;-61
2022/04/15 01:25:12;;;;;;;14.32;10.98;;;9.20;99.90;;;;;;5030557;28;20033;-61
2022/04/15 01:27:41;;;;;;;12.30;10.48;;;9.20;99.90;;;;;;5046662;28;20051;-61
2022/04/15 01:30:14;;;;;;;13.48;11.07;;;9.20;99.90;;;;;;5049913;28;20028;-61
2022/04/15 01:32:40;;;;;;;17.73;10.23;;;9.20;99.90;;;;;;5050448;28;20041;-61
2022/04/15 01:35:06;;;;;;;11.63;10.43;;;9.20;99.90;;;;;;5050083;28;20063;-61
2022/04/15 01:37:34;;;;;;;10.50;9.45;;;9.20;99.90;;;;;;5047134;28;20029;-61
2022/04/15 01:39:59;;;;;;;12.82;10.50;;;9.30;99.90;;;;;;5046720;28;20029;-61
2022/04/15 01:42:25;;;;;;;12.05;10.75;;;9.30;99.90;;;;;;5030390;28;20029;-61
2022/04/15 01:44:51;;;;;;;15.65;10.82;;;9.40;99.90;;;;;;5030210;28;20145;-61
2022/04/15 01:47:17;;;;;;;12.27;10.65;;;9.40;99.90;;;;;;5045562;28;20041;-61
2022/04/15 01:49:43;;;;;;;15.38;11.32;;;9.30;99.90;;;;;;5048725;28;20063;-60
2022/04/15 01:52:09;;;;;;;18.30;10.63;;;9.20;99.90;;;;;;5049736;28;20028;-61
2022/04/15 01:54:35;;;;;;;14.85;10.18;;;9.20;99.90;;;;;;5050290;28;20388;-61
2022/04/15 01:57:01;;;;;;;13.07;10.77;;;9.10;99.90;;;;;;5037832;28;20029;-61
2022/04/15 01:59:26;;;;;;;20.45;11.38;;;9.20;99.90;;;;;;5047104;28;20145;-61
2022/04/15 02:01:55;;;;;;;14.65;10.57;;;9.30;99.90;;;;;;5035012;28;20139;-61
2022/04/15 02:04:25;;;;;;;12.13;9.85;;;9.40;99.90;;;;;;5029978;28;20429;-61
2022/04/15 02:06:51;;;;;;;16.00;11.32;;;9.40;99.90;;;;;;5040320;28;20108;-61
2022/04/15 02:09:17;;;;;;;16.10;12.07;;;9.70;99.90;;;;;;5048179;28;20832;-60
2022/04/15 02:11:43;;;;;;;17.33;12.95;;;10.10;99.90;;;;;;5035184;28;20052;-61
2022/04/15 02:14:09;;;;;;;26.30;14.25;;;10.60;99.90;;;;;;5035430;28;20111;-61
2022/04/15 02:16:36;;;;;;;26.52;14.88;;;11.10;99.90;;;;;;5041558;28;20079;-61
2022/04/15 02:19:01;;;;;;;23.05;15.07;;;11.50;99.90;;;;;;5030133;28;20526;-61
2022/04/15 02:21:27;;;;;;;20.95;14.38;;;11.80;99.90;;;;;;5032935;28;20029;-61
2022/04/15 02:23:53;;;;;;;23.58;15.02;;;11.90;99.90;;;;;;5046940;28;20055;-61
2022/04/15 02:26:18;;;;;;;18.30;14.60;;;12.10;99.90;;;;;;5040720;28;20013;-61
2022/04/15 02:28:44;;;;;;;25.60;14.27;;;12.20;99.90;;;;;;5048247;28;20476;-61
2022/04/15 02:31:09;;;;;;;16.75;13.45;;;12.30;99.90;;;;;;5049109;28;20095;-61
2022/04/15 02:33:35;;;;;;;19.13;14.68;;;12.40;99.90;;;;;;5049880;28;20031;-61
2022/04/15 02:36:01;;;;;;;16.63;13.65;;;12.40;99.90;;;;;;5046306;28;20045;-61
2022/04/15 02:38:27;;;;;;;17.73;15.65;;;12.50;99.90;;;;;;5030019;28;20029;-61
2022/04/15 02:40:52;;;;;;;24.10;15.77;;;12.50;99.90;;;;;;5029736;28;20116;-62
2022/04/15 02:43:20;;;;;;;22.02;15.98;;;12.60;99.90;;;;;;5030681;28;20437;-61
2022/04/15 02:45:46;;;;;;;22.10;16.00;;;12.60;99.90;;;;;;5030192;28;20104;-61
2022/04/15 02:48:13;;;;;;;23.10;16.08;;;12.60;99.90;;;;;;5049652;28;20025;-61
2022/04/15 02:50:39;;;;;;;22.27;16.73;;;12.50;99.90;;;;;;5049290;28;20021;-61
2022/04/15 02:53:05;;;;;;;27.38;17.02;;;12.60;99.90;;;;;;5049486;28;20531;-61
2022/04/15 02:55:31;;;;;;;27.90;16.65;;;12.60;99.90;;;;;;5049328;28;20049;-61
2022/04/15 02:57:57;;;;;;;26.90;16.90;;;12.60;99.90;;;;;;5031049;28;20152;-61
2022/04/15 03:00:23;;;;;;;22.73;16.27;;;12.60;99.90;;;;;;5029504;28;20060;-60
2022/04/15 03:02:48;;;;;;;30.95;19.33;;;12.50;99.90;;;;;;5029614;28;20051;-61
2022/04/15 03:05:15;;;;;;;26.27;19.40;;;12.30;99.90;;;;;;5030571;28;20017;-61
2022/04/15 03:07:40;;;;;;;29.35;22.33;;;12.10;99.90;;;;;;5033551;28;20026;-61
2022/04/15 03:10:07;;;;;;;32.53;21.13;;;11.80;99.90;;;;;;5030287;28;20036;-61
2022/04/15 03:12:34;;;;;;;22.70;19.33;;;11.70;99.90;;;;;;5033706;28;20389;-61
2022/04/15 03:15:01;;;;;;;21.10;15.45;;;11.60;99.90;;;;;;5040973;28;20045;-61
2022/04/15 03:17:26;;;;;;;28.20;17.95;;;11.60;99.90;;;;;;5039206;28;20036;-60
2022/04/15 03:19:52;;;;;;;21.95;17.08;;;11.40;99.90;;;;;;5032981;28;20108;-61
2022/04/15 03:22:18;;;;;;;26.00;19.75;;;11.30;99.90;;;;;;5050672;28;20476;-61
2022/04/15 03:24:43;;;;;;;26.17;20.17;;;11.30;99.90;;;;;;5052746;28;20480;-61
2022/04/15 03:27:15;;;;;;;23.75;19.45;;;11.20;99.90;;;;;;5041182;28;20025;-61
2022/04/15 03:29:41;;;;;;;42.00;24.83;;;11.20;99.90;;;;;;5032790;28;20032;-61
2022/04/15 03:32:07;;;;;;;33.35;21.85;;;11.10;99.90;;;;;;5036752;28;20455;-61
2022/04/15 03:34:33;;;;;;;25.20;20.70;;;11.00;99.90;;;;;;5052691;28;20526;-61
2022/04/15 03:36:58;;;;;;;25.63;21.42;;;11.20;99.90;;;;;;5043160;28;20317;-61
2022/04/15 03:39:24;;;;;;;27.50;23.67;;;11.10;99.90;;;;;;5032445;28;20068;-61
2022/04/15 03:41:50;;;;;;;32.08;23.05;;;11.20;99.90;;;;;;5032566;28;20057;-61
2022/04/15 03:44:15;;;;;;;32.78;24.15;;;11.10;99.90;;;;;;5033693;28;20100;-61
2022/04/15 03:46:41;;;;;;;27.23;22.92;;;11.10;99.90;;;;;;5037531;28;20117;-61
2022/04/15 03:49:07;;;;;;;31.63;22.42;;;11.10;99.90;;;;;;5032236;28;20526;-61
2022/04/15 03:51:34;;;;;;;32.95;24.08;;;11.20;99.90;;;;;;5032412;28;20108;-61
2022/04/15 03:53:59;;;;;;;33.92;24.38;;;11.20;99.90;;;;;;5032398;28;20124;-61
2022/04/15 03:56:25;;;;;;;30.95;24.42;;;11.20;99.90;;;;;;5039498;28;20451;-61
2022/04/15 03:58:51;;;;;;;32.28;24.45;;;11.20;99.90;;;;;;5047407;28;20025;-60
2022/04/15 04:01:16;;;;;;;34.17;26.83;;;11.20;99.90;;;;;;5032390;28;20043;-61
2022/04/15 04:03:42;;;;;;;32.00;25.27;;;11.20;99.90;;;;;;5032190;28;20029;-61
2022/04/15 04:06:08;;;;;;;27.23;24.25;;;11.20;99.90;;;;;;5034328;28;20052;-61
2022/04/15 04:08:33;;;;;;;29.85;24.83;;;11.20;99.90;;;;;;5031921;28;20048;-61
2022/04/15 04:10:59;;;;;;;35.28;24.83;;;11.20;99.90;;;;;;5031946;28;20111;-61
2022/04/15 04:13:25;;;;;;;35.72;25.35;;;11.10;99.90;;;;;;5033514;28;20029;-61
2022/04/15 04:15:50;;;;;;;38.40;28.73;;;11.10;99.90;;;;;;5044760;28;20041;-61
2022/04/15 04:18:20;;;;;;;32.63;27.35;;;11.10;99.90;;;;;;5034577;28;20091;-61
2022/04/15 04:20:47;;;;;;;45.63;29.92;;;11.00;99.90;;;;;;5051623;28;20615;-61
2022/04/15 04:23:14;;;;;;;39.70;28.63;;;11.00;99.90;;;;;;5030887;28;20534;-60
2022/04/15 04:25:39;;;;;;;31.92;27.67;;;11.00;99.90;;;;;;5032815;28;20108;-61
2022/04/15 04:28:05;;;;;;;34.97;28.52;;;11.00;99.90;;;;;;5032759;28;20152;-61
2022/04/15 04:30:31;;;;;;;44.17;29.77;;;11.00;99.90;;;;;;5035926;28;20028;-61
2022/04/15 04:32:59;;;;;;;38.88;28.70;;;11.00;99.90;;;;;;5051765;28;20025;-61
2022/04/15 04:35:25;;;;;;;40.10;27.58;;;11.00;99.90;;;;;;5051382;28;20151;-61
2022/04/15 04:37:51;;;;;;;36.78;29.23;;;11.00;99.90;;;;;;5035916;28;20021;-61
2022/04/15 04:40:17;;;;;;;42.90;30.75;;;11.10;99.90;;;;;;5031548;28;20382;-61
2022/04/15 04:42:45;;;;;;;40.78;31.30;;;11.10;99.90;;;;;;5032783;28;20045;-61
2022/04/15 04:45:11;;;;;;;39.08;32.35;;;11.10;99.90;;;;;;5031195;28;20030;-61
2022/04/15 04:47:41;;;;;;;42.17;31.80;;;11.20;99.90;;;;;;5044283;28;20564;-61
2022/04/15 04:50:09;;;;;;;41.00;32.33;;;11.20;99.90;;;;;;5049922;28;20070;-61
2022/04/15 04:52:36;;;;;;;42.38;32.08;;;11.20;99.90;;;;;;5031206;28;20040;-61
2022/04/15 04:55:03;;;;;;;36.80;31.48;;;11.20;99.90;;;;;;5031202;28;20060;-60
2022/04/15 04:57:28;;;;;;;38.80;31.88;;;11.20;99.90;;;;;;5042471;28;20068;-61
2022/04/15 04:59:56;;;;;;;37.92;32.20;;;11.30;99.90;;;;;;5049426;28;20029;-61
2022/04/15 05:02:22;;;;;;;40.28;31.63;;;11.20;99.90;;;;;;5050692;28;20443;-61
2022/04/15 05:04:48;;;;;;;37.10;30.48;;;11.30;99.90;;;;;;5049712;28;20140;-61
2022/04/15 05:07:14;;;;;;;42.72;32.25;;;11.30;99.90;;;;;;5047092;28;20115;-61
2022/04/15 05:09:42;;;;;;;33.33;29.63;;;11.40;99.90;;;;;;5050703;28;20319;-61
2022/04/15 05:12:10;;;;;;;35.47;28.80;;;11.50;99.90;;;;;;5048904;28;20075;-61
2022/04/15 05:14:35;;;;;;;34.97;29.58;;;11.60;99.90;;;;;;5047402;28;20359;-61
2022/04/15 05:17:01;;;;;;;47.53;30.80;;;11.50;99.90;;;;;;5040935;28;20021;-61
2022/04/15 05:19:27;;;;;;;38.53;29.33;;;11.60;99.90;;;;;;5050747;28;20021;-61
2022/04/15 05:21:53;;;;;;;35.72;30.83;;;11.60;99.90;;;;;;5033738;28;20045;-61
2022/04/15 05:24:18;;;;;;;43.65;30.13;;;11.60;99.90;;;;;;5030587;28;20103;-61
2022/04/15 05:26:44;;;;;;;35.65;29.38;;;11.50;99.90;;;;;;5030670;28;20029;-61
2022/04/15 05:29:10;;;;;;;33.08;26.58;;;11.50;99.90;;;;;;5030640;28;20113;-61
2022/04/15 05:31:35;;;;;;;34.53;26.85;;;11.70;99.90;;;;;;5041776;28;20440;-61
2022/04/15 05:34:02;;;;;;;35.05;27.38;;;11.70;99.90;;;;;;5050459;28;20112;-61
2022/04/15 05:36:28;;;;;;;33.67;27.67;;;11.70;99.90;;;;;;5045768;28;20056;-61
2022/04/15 05:38:54;;;;;;;33.88;29.55;;;11.60;99.90;;;;;;5030661;28;20164;-61
2022/04/15 05:41:19;;;;;;;31.90;28.42;;;11.60;99.90;;;;;;5030445;28;20529;-61
2022/04/15 05:43:46;;;;;;;33.75;28.08;;;11.60;99.90;;;;;;5031815;28;20473;-61
2022/04/15 05:46:12;;;;;;;32.15;28.75;;;11.60;99.90;;;;;;5030344;28;20037;-61
2022/04/15 05:48:38;;;;;;;31.30;26.35;;;11.70;99.90;;;;;;5049992;28;20425;-61
2022/04/15 05:51:04;;;;;;;34.90;27.65;;;11.80;99.90;;;;;;5047855;28;20032;-61
2022/04/15 05:53:30;;;;;;;31.75;26.98;;;11.80;99.90;;;;;;5030540;28;20033;-61
2022/04/15 05:55:57;;;;;;;34.90;27.85;;;11.80;99.90;;;;;;5031101;28;20079;-61
2022/04/15 05:58:24;;;;;;;35.30;27.98;;;11.80;99.90;;;;;;5049035;28;20025;-60
2022/04/15 06:00:50;;;;;;;37.10;28.63;;;11.80;99.90;;;;;;5051231;28;20040;-62
2022/04/15 06:03:15;;;;;;;37.47;29.33;;;11.70;99.90;;;;;;5050643;28;20029;-61
2022/04/15 06:05:41;;;;;;;35.85;28.95;;;11.80;99.90;;;;;;5051031;28;20025;-61
2022/04/15 06:08:07;;;;;;;38.53;29.63;;;11.80;99.90;;;;;;5049528;28;20051;-61
2022/04/15 06:10:32;;;;;;;41.97;27.58;;;11.80;99.90;;;;;;5051184;28;20033;-60
2022/04/15 06:13:00;;;;;;;35.28;27.70;;;11.90;99.90;;;;;;5049577;28;20033;-61
2022/04/15 06:15:31;;;;;;;37.28;29.92;;;11.90;99.90;;;;;;5039173;28;20045;-61
2022/04/15 06:17:57;;;;;;;37.50;30.48;;;11.80;99.90;;;;;;5045259;28;20075;-61
2022/04/15 06:20:24;;;;;;;36.42;31.60;;;11.80;99.90;;;;;;5039018;28;20029;-61
2022/04/15 06:22:49;;;;;;;41.60;32.33;;;11.80;99.90;;;;;;5049060;28;20025;-61
2022/04/15 06:25:15;;;;;;;39.60;32.03;;;11.80;99.90;;;;;;5066729;28;20021;-61
2022/04/15 06:27:41;;;;;;;40.03;31.27;;;11.90;99.90;;;;;;5066780;28;20052;-61
2022/04/15 06:30:08;;;;;;;37.22;29.83;;;11.90;99.90;;;;;;5040545;28;20030;-61
2022/04/15 06:32:37;;;;;;;41.58;30.88;;;12.00;99.90;;;;;;5031144;28;20025;-62
2022/04/15 06:35:07;;;;;;;44.63;29.00;;;12.00;99.90;;;;;;5030785;28;20030;-60
2022/04/15 06:37:33;;;;;;;32.17;27.90;;;12.20;99.90;;;;;;5040892;28;20090;-61
2022/04/15 06:39:58;;;;;;;33.50;26.92;;;12.30;99.90;;;;;;5049791;28;20040;-60
2022/04/15 06:42:26;;;;;;;36.20;27.77;;;12.40;99.90;;;;;;5049871;28;20033;-61
2022/04/15 06:44:52;;;;;;;39.10;28.48;;;12.50;99.90;;;;;;5049452;28;20029;-61
2022/04/15 06:47:18;;;;;;;38.85;29.20;;;12.30;99.90;;;;;;5051911;28;20040;-62
2022/04/15 06:49:45;;;;;;;37.75;30.00;;;12.30;99.90;;;;;;5054581;28;20034;-60
2022/04/15 06:52:11;;;;;;;34.42;29.85;;;12.30;99.90;;;;;;5054113;28;20029;-62
2022/04/15 06:54:37;;;;;;;42.70;28.90;;;12.30;99.90;;;;;;5045632;28;20056;-63
2022/04/15 06:57:03;;;;;;;39.42;28.25;;;12.30;99.90;;;;;;5048606;28;20691;-60
2022/04/15 06:59:29;;;;;;;32.25;28.17;;;12.50;99.90;;;;;;5034415;28;20041;-62
2022/04/15 07:01:55;;;;;;;39.03;31.02;;;12.60;99.90;;;;;;5035485;28;20120;-60
2022/04/15 07:04:22;;;;;;;39.60;31.75;;;12.60;99.90;;;;;;5054521;28;20372;-61
2022/04/15 07:06:48;;;;;;;31.60;26.88;;;12.60;99.90;;;;;;5044241;28;20029;-63
2022/04/15 07:09:13;;;;;;;34.05;28.17;;;12.90;99.90;;;;;;5029117;28;20040;-62
2022/04/15 07:11:39;;;;;;;30.42;27.00;;;13.10;99.90;;;;;;5026376;28;20328;-61
2022/04/15 07:14:05;;;;;;;30.70;27.05;;;13.30;99.90;;;;;;5024093;28;20094;-62
2022/04/15 07:16:31;;;;;;;31.20;27.30;;;13.40;99.90;;;;;;5024294;28;20384;-61
2022/04/15 07:18:57;;;;;;;34.22;24.85;;;13.40;99.90;;;;;;5023310;28;20072;-61
2022/04/15 07:21:24;;;;;;;30.67;25.80;;;13.60;99.90;;;;;;5023471;28;20033;-61
2022/04/15 07:23:50;;;;;;;28.67;25.58;;;13.80;99.90;;;;;;5022261;28;20062;-62
2022/04/15 07:26:16;;;;;;;34.95;26.88;;;13.90;99.90;;;;;;5022575;28;20072;-61
2022/04/15 07:28:41;;;;;;;38.03;27.48;;;13.70;99.90;;;;;;5024110;28;20034;-61
2022/04/15 07:31:07;;;;;;;35.47;29.80;;;13.80;99.90;;;;;;5023666;28;20033;-61
2022/04/15 07:33:33;;;;;;;34.75;29.52;;;13.90;99.90;;;;;;5022708;28;20350;-62
2022/04/15 07:35:59;;;;;;;35.15;29.65;;;14.00;99.90;;;;;;5023579;28;20037;-61
2022/04/15 07:38:24;;;;;;;37.55;31.52;;;13.80;99.90;;;;;;5023696;28;20060;-62
2022/04/15 07:40:50;;;;;;;34.17;30.55;;;13.90;99.90;;;;;;5023276;28;22788;-61
2022/04/15 07:43:16;;;;;;;43.30;32.17;;;13.80;99.90;;;;;;5022927;28;20133;-61
2022/04/15 07:45:41;;;;;;;41.50;32.67;;;13.60;99.90;;;;;;5022919;28;20603;-62
2022/04/15 07:48:07;;;;;;;37.85;31.70;;;13.60;99.90;;;;;;5022497;28;20060;-61
2022/04/15 07:50:33;;;;;;;36.45;32.55;;;13.80;99.90;;;;;;5022986;28;20167;-62
2022/04/15 07:53:00;;;;;;;38.72;32.83;;;13.70;99.90;;;;;;5024412;28;20034;-61
2022/04/15 07:55:28;;;;;;;41.17;33.13;;;14.00;99.90;;;;;;5023365;28;20099;-61
2022/04/15 07:57:54;;;;;;;34.22;29.10;;;14.30;99.90;;;;;;5022909;28;20036;-61
2022/04/15 08:00:20;;;;;;;35.22;29.30;;;14.90;99.90;;;;;;5022376;28;20141;-61
2022/04/15 08:02:46;;;;;;;35.35;29.00;;;14.80;99.90;;;;;;5023231;28;20205;-62
2022/04/15 08:05:21;;;;;;;30.95;27.55;;;15.00;99.90;;;;;;5022452;28;20112;-61
2022/04/15 08:07:47;;;;;;;34.42;26.55;;;15.10;99.90;;;;;;5023140;28;20036;-62
2022/04/15 08:10:13;;;;;;;32.53;27.70;;;14.80;99.90;;;;;;5022782;28;20376;-62
2022/04/15 08:12:39;;;;;;;32.15;26.65;;;14.90;99.90;;;;;;5022823;28;20042;-62
2022/04/15 08:15:05;;;;;;;34.30;27.30;;;15.20;99.90;;;;;;5022537;28;20115;-62
2022/04/15 08:17:30;;;;;;;31.45;27.63;;;14.80;99.90;;;;;;5022456;28;20041;-62
2022/04/15 08:19:58;;;;;;;29.38;24.13;;;14.90;99.90;;;;;;5022611;28;20033;-61
2022/04/15 08:22:24;;;;;;;32.88;24.20;;;14.90;99.90;;;;;;5022499;28;20039;-62
2022/04/15 08:24:50;;;;;;;29.80;22.60;;;15.30;99.90;;;;;;5022933;28;20219;-62
2022/04/15 08:27:15;;;;;;;24.92;22.13;;;15.30;99.90;;;;;;5021866;28;20396;-62
2022/04/15 08:29:42;;;;;;;31.05;24.80;;;15.00;99.90;;;;;;5022174;28;20039;-61
2022/04/15 08:32:10;;;;;;;29.17;23.67;;;15.10;99.90;;;;;;5021237;28;20648;-61
2022/04/15 08:34:37;;;;;;;29.77;23.48;;;15.30;99.90;;;;;;5022066;28;20068;-61
2022/04/15 08:37:03;;;;;;;25.92;22.30;;;15.20;99.90;;;;;;5028672;28;20473;-61
2022/04/15 08:39:29;;;;;;;33.55;25.30;;;15.30;99.90;;;;;;5032762;28;20083;-62
2022/04/15 08:41:56;;;;;;;28.98;21.92;;;15.00;99.90;;;;;;5032602;28;20029;-62
2022/04/15 08:44:24;;;;;;;35.35;21.63;;;15.60;99.90;;;;;;5031832;28;20030;-61
2022/04/15 08:46:50;;;;;;;20.95;18.50;;;15.60;99.90;;;;;;5036216;28;20112;-61
2022/04/15 08:49:19;;;;;;;23.58;17.67;;;16.20;99.90;;;;;;5052231;28;20027;-61
2022/04/15 08:51:51;;;;;;;29.40;17.48;;;15.80;99.90;;;;;;5052429;28;20512;-61
2022/04/15 08:54:18;;;;;;;20.10;17.52;;;15.50;99.90;;;;;;5052264;28;20067;-60
2022/04/15 08:56:44;;;;;;;22.90;17.00;;;15.90;99.90;;;;;;5050750;28;20029;-61
2022/04/15 08:59:10;;;;;;;22.08;18.70;;;16.00;99.90;;;;;;5032258;28;20369;-61
2022/04/15 09:01:36;;;;;;;31.92;18.73;;;16.00;99.90;;;;;;5031171;28;20432;-61
2022/04/15 09:04:03;;;;;;;20.50;16.70;;;16.10;99.90;;;;;;5032347;28;20117;-61
2022/04/15 09:06:31;;;;;;;19.95;16.33;;;16.40;99.90;;;;;;5032464;28;20118;-60
2022/04/15 09:09:08;;;;;;;23.05;16.58;;;16.30;99.90;;;;;;5051013;28;20039;-62
2022/04/15 09:11:35;;;;;;;19.35;15.75;;;16.30;99.90;;;;;;5051248;28;20024;-62
2022/04/15 09:14:06;;;;;;;38.15;17.55;;;16.50;99.90;;;;;;5050608;28;20024;-61
2022/04/15 09:16:40;;;;;;;20.52;16.30;;;16.60;99.90;;;;;;5050997;28;20033;-62
2022/04/15 09:19:07;;;;;;;25.35;17.13;;;16.50;99.90;;;;;;5030988;28;20063;-61
2022/04/15 09:21:33;;;;;;;20.25;15.98;;;16.30;99.90;;;;;;5031957;28;20028;-61
2022/04/15 09:23:59;;;;;;;18.50;16.23;;;16.50;99.90;;;;;;5031761;28;20029;-62
2022/04/15 09:26:25;;;;;;;17.80;14.95;;;16.50;99.90;;;;;;5031184;28;20534;-61
2022/04/15 09:28:53;;;;;;;19.75;14.77;;;17.10;99.90;;;;;;5049491;28;20690;-61
2022/04/15 09:31:21;;;;;;;23.25;13.82;;;17.50;99.90;;;;;;5051406;28;20040;-61
2022/04/15 09:33:51;;;;;;;15.73;13.73;;;17.40;99.90;;;;;;5051770;28;20070;-60
2022/04/15 09:36:30;;;;;;;31.05;14.55;;;17.00;99.90;;;;;;5051260;28;20025;-60
2022/04/15 09:39:10;;;;;;;22.92;16.83;;;16.50;99.90;;;;;;5032969;28;20151;-60
2022/04/15 09:41:54;;;;;;;17.17;14.35;;;16.80;99.90;;;;;;5031939;28;20792;-60
2022/04/15 09:44:22;;;;;;;22.15;14.52;;;17.20;99.90;;;;;;5031161;28;20025;-60
2022/04/15 09:46:50;;;;;;;16.75;11.65;;;17.30;99.90;;;;;;5032340;28;20056;-60
2022/04/15 09:49:16;;;;;;;18.30;11.50;;;17.90;99.90;;;;;;5051294;28;20025;-60
2022/04/15 09:51:47;;;;;;;13.23;11.82;;;18.40;99.90;;;;;;5051497;28;20426;-60
2022/04/15 09:54:23;;;;;;;12.60;10.43;;;17.80;99.90;;;;;;5051276;28;20391;-59
2022/04/15 09:56:50;;;;;;;13.18;9.30;;;17.80;99.90;;;;;;5050222;28;20044;-60
2022/04/15 09:59:19;;;;;;;13.32;10.70;;;18.00;99.90;;;;;;5031490;28;20574;-60
2022/04/15 10:01:47;;;;;;;12.77;9.88;;;18.40;99.50;;;;;;5031634;28;20381;-61
2022/04/15 10:04:14;;;;;;;12.57;10.25;;;19.20;99.70;;;;;;5031333;28;20385;-61
2022/04/15 10:06:41;;;;;;;17.23;11.40;;;19.10;97.00;;;;;;5031374;28;20100;-61
2022/04/15 10:09:14;;;;;;;12.73;10.73;;;19.20;97.70;;;;;;5035811;28;20028;-61
2022/04/15 10:11:42;;;;;;;14.05;9.80;;;18.70;95.80;;;;;;5051289;28;20053;-61
2022/04/15 10:14:10;;;;;;;16.20;12.02;;;18.00;97.90;;;;;;5050887;28;20060;-61
2022/04/15 10:16:38;;;;;;;16.42;12.55;;;17.60;99.90;;;;;;5051308;28;20029;-61
2022/04/15 10:19:05;;;;;;;15.73;11.70;;;17.70;99.90;;;;;;5050794;28;20107;-61
2022/04/15 10:21:33;;;;;;;11.77;10.57;;;18.10;99.80;;;;;;5052810;28;20082;-60
2022/04/15 10:24:01;;;;;;;13.45;9.13;;;18.20;98.00;;;;;;5041916;28;20539;-61
2022/04/15 10:26:31;;;;;;;10.93;8.73;;;18.50;96.10;;;;;;5034348;28;20057;-60
2022/04/15 10:29:03;;;;;;;15.18;9.40;;;18.70;95.90;;;;;;5035244;28;20043;-61
2022/04/15 10:31:43;;;;;;;12.90;10.02;;;19.50;96.20;;;;;;5035146;28;20098;-60
2022/04/15 10:34:14;;;;;;;11.88;10.30;;;19.50;94.80;;;;;;5034818;28;20017;-61
2022/04/15 10:36:45;;;;;;;12.05;9.32;;;18.90;92.80;;;;;;5035353;28;20427;-60
2022/04/15 10:39:14;;;;;;;14.10;8.07;;;19.40;92.60;;;;;;5048856;28;20104;-61
2022/04/15 10:41:43;;;;;;;12.70;9.48;;;19.30;94.40;;;;;;5054806;28;20029;-61
2022/04/15 10:44:35;;;;;;;12.32;11.02;;;19.60;92.20;;;;;;5053577;28;20466;-60
2022/04/15 10:47:27;;;;;;;18.58;10.07;;;19.50;93.30;;;;;;5054527;28;20021;-61
2022/04/15 10:50:04;;;;;;;13.93;10.40;;;19.60;93.20;;;;;;5054939;28;20025;-61
2022/04/15 10:52:34;;;;;;;9.77;8.32;;;20.20;94.70;;;;;;5053437;28;20024;-61
2022/04/15 10:55:02;;;;;;;11.25;8.30;;;20.70;92.50;;;;;;5020108;28;20028;-61
2022/04/15 10:57:40;;;;;;;11.30;8.15;;;20.40;90.00;;;;;;5025216;28;20030;-61
2022/04/15 11:03:25;;;;;;;8.60;6.55;;;20.50;91.10;;;;;;5024173;28;20503;-61
2022/04/15 11:05:54;;;;;;;10.88;7.38;;;19.70;83.00;;;;;;5025003;28;20077;-61
2022/04/15 11:08:21;;;;;;;16.52;8.52;;;19.10;83.30;;;;;;5022828;28;20033;-61
2022/04/15 11:10:50;;;;;;;10.88;6.93;;;19.20;86.90;;;;;;5028323;28;20037;-61
2022/04/15 11:13:39;;;;;;;14.40;8.45;;;20.00;89.20;;;;;;5037361;28;20112;-61
2022/04/15 11:16:14;;;;;;;8.48;7.68;;;19.80;89.20;;;;;;5035288;28;20389;-61
2022/04/15 11:18:43;;;;;;;10.13;6.00;;;20.00;90.20;;;;;;5022660;28;20064;-61
2022/04/15 11:21:36;;;;;;;9.55;6.78;;;20.20;78.80;;;;;;5021451;28;20037;-61
2022/04/15 11:24:09;;;;;;;9.10;6.90;;;20.20;79.00;;;;;;5022966;28;20918;-61
2022/04/15 11:26:39;;;;;;;;;;;20.30;80.90;;;;;;5022993;28;20029;-61
2022/04/15 11:29:07;;;;;;;9.85;5.32;;;20.70;79.70;;;;;;5021800;28;19910;-61
2022/04/15 11:31:38;;;;;;;6.45;5.78;;;22.40;72.50;;;;;;5021574;28;20033;-61
2022/04/15 11:34:11;;;;;;;9.27;5.00;;;22.90;66.80;;;;;;5020780;28;20041;-61
2022/04/15 11:36:41;;;;;;;8.52;5.38;;;23.60;67.70;;;;;;5021398;28;20075;-62
2022/04/15 11:39:13;;;;;;;7.15;5.40;;;24.50;66.10;;;;;;5020286;28;20052;-59
2022/04/15 11:41:46;;;;;;;7.13;4.72;;;25.80;60.10;;;;;;5021891;28;20116;-60
2022/04/15 11:44:13;;;;;;;6.93;4.95;;;25.80;56.40;;;;;;5021818;28;20044;-59
2022/04/15 11:46:43;;;;;;;13.65;5.63;;;23.30;57.90;;;;;;5022627;28;20060;-59
2022/04/15 11:49:22;;;;;;;6.95;5.45;;;23.70;59.50;;;;;;5021687;28;20442;-59
2022/04/15 11:51:56;;;;;;;8.45;5.18;;;24.10;55.90;;;;;;5041080;28;20089;-59
2022/04/15 11:54:23;;;;;;;10.52;6.22;;;25.90;56.30;;;;;;5041184;28;20041;-59
2022/04/15 11:56:54;;;;;;;7.43;5.03;;;27.00;53.50;;;;;;5037279;28;20022;-59
2022/04/15 11:59:20;;;;;;;6.88;4.93;;;27.50;49.70;;;;;;5021922;28;20566;-59
2022/04/15 12:01:45;;;;;;;6.60;5.15;;;27.20;51.10;;;;;;5021722;28;20065;-59
2022/04/15 12:04:12;;;;;;;6.05;4.45;;;26.00;48.00;;;;;;5021022;28;20116;-59
2022/04/15 12:06:40;;;;;;;5.03;4.22;;;27.40;49.90;;;;;;5025495;28;20510;-59
2022/04/15 12:09:10;;;;;;;7.22;5.72;;;26.90;49.90;;;;;;5041445;28;20040;-59
2022/04/15 12:11:37;;;;;;;7.13;5.00;;;24.70;53.40;;;;;;5029767;28;20030;-59
2022/04/15 12:14:04;;;;;;;5.07;4.13;;;24.80;50.40;;;;;;4982217;28;1137057;-59
2022/04/15 12:16:33;;;;;;;4.88;4.10;;;25.70;49.90;;;;;;5022094;28;20615;-59
2022/04/15 12:19:00;;;;;;;5.10;4.05;;;25.20;45.50;;;;;;5022601;28;20040;-59
2022/04/15 12:21:28;;;;;;;4.78;4.28;;;27.40;45.60;;;;;;5022463;28;20377;-59
2022/04/15 12:24:07;;;;;;;5.90;4.35;;;23.90;47.20;;;;;;5022411;28;20033;-59
2022/04/15 12:26:48;;;;;;;8.00;4.03;;;23.70;50.00;;;;;;5022341;28;20029;-59
2022/04/15 12:32:13;;;;;;;6.60;5.20;;;25.60;47.40;;;;;;5022482;28;20041;-59
2022/04/15 12:34:39;;;;;;;7.45;4.72;;;23.50;50.60;;;;;;5023173;28;20030;-59
2022/04/15 12:37:05;;;;;;;6.70;4.75;;;22.70;52.80;;;;;;5022186;28;20037;-59
2022/04/15 12:39:30;;;;;;;9.02;4.53;;;23.20;53.90;;;;;;5022465;28;20037;-59